To NAV CANADA Home Page Login to a new session Search on AWWS site Feedback and Comments Disclaimer Vers la page française équivalente Tips FAQ What's new on the site To the Forecasts and Observations / NOTAM section To "File a Flight Plan" website Publications and other links Update of the User's profile FIC Telephone Numbers My Weather Data Folder Route Weather Data Regional Weather Data Local Weather Data To the Forecasts and Observations / NOTAM section
Request Generated 09/03/2015 at 21:23:19 UTC . Weather information available at that time is displayed.

METAR/TAF

GREENWOOD/NS    

METAR CYZX 032100Z 29010KT 15SM FEW030 27/18 A2981 RMK CU1 WNDY HILL 30007KT CU TR SLP095=
METAR CYZX 032000Z 29010KT 15SM FEW030 28/17 A2980 RMK CU1 WNDY HILL 27006KT SLP091=
METAR CYZX 031900Z 31009KT 15SM FEW028 28/18 A2980 RMK CU1 WNDY HILL 30005KT SLP091=

TAF CYZX 031730Z 0318/0418 31010KT P6SM FEW030
BECMG 0401/0403 05008KT
RMK NXT FCST BY 040000Z=
Your time UTC time
Weather data provided by Environment Canada and NAV CANADA